ACA204 CYYC-CYVR
Flight info
| Callsign | ACA204 |
|---|---|
| Flight time | N/A |
| Altitude | 38000 |
| Route | BOTAG Q894 BOOTH CANUC5 |
| Aircraft | A20N/M-SDE2E3FGHIRWXY/LB1 |
Departure
| Time | 2026-05-04 01:13 |
|---|---|
| Airport | Calgary International Airport (CYYC) |
Arrival
| Time | N/A |
|---|---|
| Airport | Vancouver International Airport (CYVR) |
| Time | Latitude | Longitude | Altitude | Speed | Heading |
|---|---|---|---|---|---|
| 2026-05-04 00:42 | 51.10762 | -114.01460 | 3559 ft | 0 kts | 180° |
| 2026-05-04 00:46 | 51.10770 | -114.01460 | 3557 ft | 2 kts | 180° |
| 2026-05-04 00:46 | 51.10786 | -114.01460 | 3558 ft | 2 kts | 180° |
| 2026-05-04 00:47 | 51.10803 | -114.01460 | 3557 ft | 2 kts | 180° |
| 2026-05-04 00:47 | 51.10820 | -114.01460 | 3557 ft | 3 kts | 190° |
| 2026-05-04 00:47 | 51.10836 | -114.01448 | 3557 ft | 3 kts | 230° |
| 2026-05-04 00:47 | 51.10843 | -114.01428 | 3554 ft | 0 kts | 263° |
| 2026-05-04 00:48 | 51.10842 | -114.01434 | 3554 ft | 1 kts | 263° |
| 2026-05-04 00:48 | 51.10841 | -114.01446 | 3556 ft | 1 kts | 263° |
| 2026-05-04 00:48 | 51.10841 | -114.01451 | 3557 ft | 0 kts | 264° |
| 2026-05-04 00:50 | 51.10841 | -114.01454 | 3557 ft | 1 kts | 264° |
| 2026-05-04 00:50 | 51.10840 | -114.01463 | 3556 ft | 1 kts | 264° |
| 2026-05-04 00:51 | 51.10839 | -114.01479 | 3559 ft | 2 kts | 265° |
| 2026-05-04 00:51 | 51.10839 | -114.01499 | 3555 ft | 2 kts | 267° |
| 2026-05-04 00:51 | 51.10838 | -114.01524 | 3559 ft | 2 kts | 268° |
| 2026-05-04 00:51 | 51.10838 | -114.01553 | 3557 ft | 3 kts | 270° |
| 2026-05-04 00:52 | 51.10840 | -114.01585 | 3556 ft | 3 kts | 281° |
| 2026-05-04 00:52 | 51.10848 | -114.01616 | 3558 ft | 3 kts | 303° |
| 2026-05-04 00:52 | 51.10867 | -114.01637 | 3557 ft | 3 kts | 336° |
| 2026-05-04 00:52 | 51.10891 | -114.01646 | 3556 ft | 4 kts | 350° |
| 2026-05-04 00:53 | 51.10918 | -114.01647 | 3558 ft | 4 kts | 0° |
| 2026-05-04 00:53 | 51.10948 | -114.01647 | 3556 ft | 5 kts | 0° |
| 2026-05-04 00:53 | 51.10981 | -114.01646 | 3558 ft | 5 kts | 0° |
| 2026-05-04 00:53 | 51.11018 | -114.01646 | 3559 ft | 6 kts | 0° |
| 2026-05-04 00:54 | 51.11059 | -114.01646 | 3559 ft | 6 kts | 358° |
| 2026-05-04 00:54 | 51.11100 | -114.01648 | 3559 ft | 6 kts | 358° |
| 2026-05-04 00:54 | 51.11145 | -114.01648 | 3559 ft | 7 kts | 0° |
| 2026-05-04 00:54 | 51.11193 | -114.01647 | 3559 ft | 7 kts | 0° |
| 2026-05-04 00:55 | 51.11243 | -114.01647 | 3559 ft | 7 kts | 0° |
| 2026-05-04 00:55 | 51.11296 | -114.01647 | 3558 ft | 8 kts | 0° |
| 2026-05-04 00:55 | 51.11349 | -114.01647 | 3560 ft | 8 kts | 359° |
| 2026-05-04 00:55 | 51.11400 | -114.01630 | 3560 ft | 8 kts | 30° |
| 2026-05-04 00:56 | 51.11423 | -114.01557 | 3559 ft | 8 kts | 88° |
| 2026-05-04 00:56 | 51.11423 | -114.01469 | 3559 ft | 8 kts | 89° |
| 2026-05-04 00:56 | 51.11422 | -114.01377 | 3559 ft | 9 kts | 92° |
| 2026-05-04 00:56 | 51.11420 | -114.01279 | 3558 ft | 9 kts | 91° |
| 2026-05-04 00:57 | 51.11419 | -114.01175 | 3558 ft | 10 kts | 91° |
| 2026-05-04 00:57 | 51.11418 | -114.01063 | 3557 ft | 11 kts | 91° |
| 2026-05-04 00:57 | 51.11416 | -114.00940 | 3556 ft | 11 kts | 90° |
| 2026-05-04 00:57 | 51.11417 | -114.00826 | 3555 ft | 10 kts | 80° |
| 2026-05-04 00:58 | 51.11463 | -114.00757 | 3552 ft | 10 kts | 30° |
| 2026-05-04 00:58 | 51.11525 | -114.00701 | 3552 ft | 11 kts | 25° |
| 2026-05-04 00:58 | 51.11602 | -114.00673 | 3553 ft | 11 kts | 21° |
| 2026-05-04 00:58 | 51.11669 | -114.00616 | 3554 ft | 10 kts | 29° |
| 2026-05-04 00:59 | 51.11724 | -114.00566 | 3555 ft | 8 kts | 30° |
| 2026-05-04 00:59 | 51.11770 | -114.00521 | 3557 ft | 7 kts | 30° |
| 2026-05-04 00:59 | 51.11807 | -114.00482 | 3559 ft | 6 kts | 44° |
| 2026-05-04 00:59 | 51.11822 | -114.00437 | 3560 ft | 4 kts | 75° |
| 2026-05-04 01:00 | 51.11824 | -114.00400 | 3560 ft | 3 kts | 89° |
| 2026-05-04 01:00 | 51.11824 | -114.00381 | 3560 ft | 1 kts | 89° |
| 2026-05-04 01:00 | 51.11824 | -114.00378 | 3560 ft | 0 kts | 89° |
| 2026-05-04 01:01 | 51.11824 | -114.00360 | 3560 ft | 8 kts | 89° |
| 2026-05-04 01:01 | 51.11824 | -114.00228 | 3563 ft | 11 kts | 90° |
| 2026-05-04 01:01 | 51.11825 | -114.00119 | 3565 ft | 8 kts | 89° |
| 2026-05-04 01:01 | 51.11825 | -114.00047 | 3567 ft | 5 kts | 91° |
| 2026-05-04 01:02 | 51.11824 | -114.00016 | 3568 ft | 1 kts | 91° |
| 2026-05-04 01:02 | 51.11824 | -113.99989 | 3569 ft | 6 kts | 91° |
| 2026-05-04 01:02 | 51.11824 | -113.99907 | 3572 ft | 6 kts | 89° |
| 2026-05-04 01:02 | 51.11824 | -113.99867 | 3573 ft | 2 kts | 89° |
| 2026-05-04 01:03 | 51.11824 | -113.99862 | 3573 ft | 1 kts | 89° |
| 2026-05-04 01:04 | 51.11825 | -113.99823 | 3575 ft | 7 kts | 89° |
| 2026-05-04 01:04 | 51.11826 | -113.99710 | 3579 ft | 13 kts | 89° |
| 2026-05-04 01:04 | 51.11824 | -113.99553 | 3583 ft | 14 kts | 91° |
| 2026-05-04 01:04 | 51.11769 | -113.99452 | 3582 ft | 16 kts | 171° |
| 2026-05-04 01:05 | 51.11616 | -113.99447 | 3578 ft | 28 kts | 179° |
| 2026-05-04 01:05 | 51.11475 | -113.99449 | 3579 ft | 13 kts | 181° |
| 2026-05-04 01:05 | 51.11385 | -113.99449 | 3576 ft | 13 kts | 180° |
| 2026-05-04 01:05 | 51.11291 | -113.99449 | 3577 ft | 14 kts | 180° |
| 2026-05-04 01:06 | 51.11195 | -113.99448 | 3574 ft | 14 kts | 179° |
| 2026-05-04 01:06 | 51.11119 | -113.99450 | 3573 ft | 10 kts | 181° |
| 2026-05-04 01:06 | 51.11056 | -113.99430 | 3567 ft | 7 kts | 143° |
| 2026-05-04 01:06 | 51.11038 | -113.99380 | 3572 ft | 4 kts | 107° |
| 2026-05-04 01:07 | 51.11035 | -113.99347 | 3576 ft | 2 kts | 96° |
| 2026-05-04 01:07 | 51.11033 | -113.99286 | 3574 ft | 6 kts | 90° |
| 2026-05-04 01:07 | 51.11033 | -113.99243 | 3582 ft | 0 kts | 90° |
| 2026-05-04 01:10 | 51.11033 | -113.99214 | 3576 ft | 4 kts | 90° |
| 2026-05-04 01:10 | 51.11033 | -113.99168 | 3582 ft | 4 kts | 90° |
| 2026-05-04 01:10 | 51.11034 | -113.99118 | 3582 ft | 5 kts | 88° |
| 2026-05-04 01:11 | 51.11043 | -113.99072 | 3572 ft | 4 kts | 57° |
| 2026-05-04 01:11 | 51.11063 | -113.99050 | 3580 ft | 3 kts | 21° |
| 2026-05-04 01:11 | 51.11082 | -113.99041 | 3578 ft | 2 kts | 12° |
| 2026-05-04 01:11 | 51.11095 | -113.99039 | 3578 ft | 1 kts | 5° |
| 2026-05-04 01:12 | 51.11166 | -113.99036 | 3574 ft | 36 kts | 360° |
| 2026-05-04 01:12 | 51.11692 | -113.99037 | 3583 ft | 117 kts | 359° |
| 2026-05-04 01:12 | 51.12737 | -113.99039 | 3691 ft | 174 kts | 1° |
| 2026-05-04 01:12 | 51.14045 | -113.99051 | 4092 ft | 201 kts | 0° |
| 2026-05-04 01:13 | 51.15400 | -113.99741 | 4870 ft | 225 kts | 328° |
| 2026-05-04 01:13 | 51.16386 | -114.01879 | 5025 ft | 249 kts | 294° |
| 2026-05-04 01:13 | 51.16436 | -114.04749 | 5008 ft | 268 kts | 264° |
| 2026-05-04 01:13 | 51.15860 | -114.07579 | 5000 ft | 277 kts | 252° |
| 2026-05-04 01:14 | 51.15080 | -114.10384 | 4997 ft | 276 kts | 251° |
| 2026-05-04 01:14 | 51.14317 | -114.13186 | 5029 ft | 276 kts | 253° |
| 2026-05-04 01:14 | 51.13642 | -114.16101 | 5447 ft | 287 kts | 257° |
| 2026-05-04 01:14 | 51.13060 | -114.19138 | 6532 ft | 284 kts | 260° |
| 2026-05-04 01:15 | 51.12560 | -114.22152 | 7722 ft | 281 kts | 261° |
| 2026-05-04 01:15 | 51.12110 | -114.25171 | 8885 ft | 279 kts | 263° |
| 2026-05-04 01:15 | 51.11686 | -114.28171 | 9634 ft | 278 kts | 263° |
| 2026-05-04 01:15 | 51.11274 | -114.31164 | 9965 ft | 278 kts | 263° |
| 2026-05-04 01:16 | 51.10858 | -114.34184 | 10038 ft | 279 kts | 262° |
| 2026-05-04 01:16 | 51.10434 | -114.37241 | 10249 ft | 288 kts | 262° |
| 2026-05-04 01:16 | 51.09987 | -114.40458 | 10830 ft | 304 kts | 262° |
| 2026-05-04 01:16 | 51.09520 | -114.43758 | 11787 ft | 308 kts | 261° |
| 2026-05-04 01:17 | 51.09043 | -114.47073 | 12829 ft | 309 kts | 260° |
| 2026-05-04 01:17 | 51.08555 | -114.50434 | 13859 ft | 313 kts | 259° |
| 2026-05-04 01:17 | 51.08061 | -114.53828 | 14690 ft | 318 kts | 260° |
| 2026-05-04 01:17 | 51.07593 | -114.57032 | 15393 ft | 323 kts | 261° |
| 2026-05-04 01:18 | 51.07078 | -114.60549 | 15873 ft | 327 kts | 261° |
| 2026-05-04 01:18 | 51.06552 | -114.64017 | 16023 ft | 329 kts | 261° |
| 2026-05-04 01:18 | 51.06006 | -114.67525 | 16035 ft | 331 kts | 260° |
| 2026-05-04 01:18 | 51.05446 | -114.71064 | 16032 ft | 332 kts | 260° |
| 2026-05-04 01:19 | 51.04876 | -114.74645 | 16038 ft | 333 kts | 260° |
| 2026-05-04 01:19 | 51.04307 | -114.78220 | 16409 ft | 338 kts | 260° |
| 2026-05-04 01:19 | 51.03728 | -114.81830 | 17357 ft | 339 kts | 261° |
| 2026-05-04 01:19 | 51.03135 | -114.85506 | 18306 ft | 340 kts | 262° |
| 2026-05-04 01:20 | 51.02545 | -114.89146 | 19079 ft | 342 kts | 261° |
| 2026-05-04 01:20 | 51.01955 | -114.92792 | 19673 ft | 344 kts | 261° |
| 2026-05-04 01:20 | 51.01353 | -114.96512 | 19952 ft | 348 kts | 261° |
| 2026-05-04 01:20 | 51.00745 | -115.00260 | 20006 ft | 349 kts | 261° |
| 2026-05-04 01:21 | 51.00142 | -115.03969 | 20004 ft | 350 kts | 261° |
| 2026-05-04 01:21 | 50.99532 | -115.07706 | 20000 ft | 350 kts | 261° |
| 2026-05-04 01:21 | 50.98919 | -115.11452 | 20004 ft | 351 kts | 261° |
| 2026-05-04 01:21 | 50.98301 | -115.15206 | 20202 ft | 355 kts | 261° |
| 2026-05-04 01:22 | 50.97679 | -115.18991 | 20920 ft | 356 kts | 261° |
| 2026-05-04 01:22 | 50.97044 | -115.22853 | 21721 ft | 359 kts | 261° |
| 2026-05-04 01:22 | 50.96421 | -115.26640 | 22496 ft | 361 kts | 261° |
| 2026-05-04 01:22 | 50.95783 | -115.30503 | 23204 ft | 364 kts | 261° |
| 2026-05-04 01:23 | 50.95126 | -115.34475 | 23830 ft | 368 kts | 261° |
| 2026-05-04 01:23 | 50.94488 | -115.38333 | 24369 ft | 372 kts | 261° |
| 2026-05-04 01:23 | 50.93822 | -115.42346 | 24804 ft | 378 kts | 261° |
| 2026-05-04 01:23 | 50.93144 | -115.46435 | 24990 ft | 392 kts | 260° |
| 2026-05-04 01:24 | 50.92445 | -115.50651 | 25009 ft | 408 kts | 260° |
| 2026-05-04 01:24 | 50.91672 | -115.55297 | 25012 ft | 424 kts | 260° |
| 2026-05-04 01:24 | 50.90909 | -115.59855 | 25009 ft | 440 kts | 259° |
| 2026-05-04 01:24 | 50.90371 | -115.63057 | 25006 ft | 449 kts | 259° |
| 2026-05-04 01:25 | 50.89541 | -115.67971 | 25012 ft | 463 kts | 259° |
| 2026-05-04 01:25 | 50.88660 | -115.73165 | 25006 ft | 475 kts | 259° |
| 2026-05-04 01:25 | 50.87773 | -115.78270 | 26714 ft | 420 kts | 258° |
| 2026-05-04 01:25 | 50.86849 | -115.82579 | 29068 ft | 397 kts | 256° |
| 2026-05-04 01:26 | 50.85929 | -115.86945 | 29378 ft | 401 kts | 259° |
| 2026-05-04 01:26 | 50.85207 | -115.91324 | 29619 ft | 407 kts | 262° |
| 2026-05-04 01:26 | 50.84555 | -115.95721 | 29924 ft | 411 kts | 262° |
| 2026-05-04 01:26 | 50.83894 | -116.00164 | 30331 ft | 412 kts | 262° |
| 2026-05-04 01:27 | 50.83677 | -116.01581 | 30453 ft | 412 kts | 261° |
| 2026-05-04 01:27 | 50.83226 | -116.04453 | 30958 ft | 398 kts | 262° |
| 2026-05-04 01:27 | 50.82755 | -116.07862 | 31764 ft | 375 kts | 263° |
| 2026-05-04 01:27 | 50.82251 | -116.11329 | 32070 ft | 373 kts | 263° |
| 2026-05-04 01:28 | 50.81839 | -116.13986 | 31994 ft | 375 kts | 258° |
| 2026-05-04 01:28 | 50.81080 | -116.18359 | 32197 ft | 378 kts | 260° |
| 2026-05-04 01:28 | 50.80370 | -116.22155 | 32370 ft | 383 kts | 259° |
| 2026-05-04 01:28 | 50.79572 | -116.26351 | 32693 ft | 385 kts | 259° |
| 2026-05-04 01:29 | 50.78776 | -116.30467 | 33246 ft | 375 kts | 259° |
| 2026-05-04 01:29 | 50.78338 | -116.32692 | 33409 ft | 363 kts | 260° |
| 2026-05-04 01:29 | 50.77497 | -116.37217 | 33273 ft | 349 kts | 261° |
| 2026-05-04 01:29 | 50.76900 | -116.40613 | 33103 ft | 344 kts | 262° |
| 2026-05-04 01:30 | 50.76246 | -116.44407 | 32926 ft | 335 kts | 262° |
| 2026-05-04 01:30 | 50.75577 | -116.48160 | 32798 ft | 329 kts | 261° |
| 2026-05-04 01:30 | 50.74933 | -116.51588 | 32670 ft | 324 kts | 260° |
| 2026-05-04 01:30 | 50.74286 | -116.54982 | 32482 ft | 320 kts | 260° |
| 2026-05-04 01:31 | 50.73646 | -116.58309 | 32295 ft | 318 kts | 260° |
| 2026-05-04 01:31 | 50.73037 | -116.61466 | 32097 ft | 316 kts | 260° |
| 2026-05-04 01:31 | 50.72395 | -116.64784 | 31883 ft | 313 kts | 260° |
| 2026-05-04 01:31 | 50.71751 | -116.68098 | 31648 ft | 311 kts | 260° |
| 2026-05-04 01:32 | 50.71118 | -116.71351 | 31468 ft | 308 kts | 260° |
| 2026-05-04 01:32 | 50.70489 | -116.74579 | 31267 ft | 307 kts | 259° |
| 2026-05-04 01:32 | 50.69858 | -116.77800 | 31040 ft | 305 kts | 259° |
| 2026-05-04 01:32 | 50.69225 | -116.81038 | 30838 ft | 302 kts | 259° |
| 2026-05-04 01:33 | 50.68598 | -116.84238 | 30596 ft | 301 kts | 259° |
| 2026-05-04 01:33 | 50.68004 | -116.87263 | 30420 ft | 300 kts | 259° |
| 2026-05-04 01:33 | 50.67364 | -116.90516 | 30233 ft | 297 kts | 259° |
| 2026-05-04 01:33 | 50.66790 | -116.93425 | 30025 ft | 293 kts | 259° |
| 2026-05-04 01:34 | 50.66161 | -116.96619 | 29696 ft | 294 kts | 259° |
| 2026-05-04 01:34 | 50.65790 | -116.98496 | 29571 ft | 292 kts | 259° |
| 2026-05-04 01:34 | 50.65103 | -117.01967 | 29373 ft | 289 kts | 259° |
| 2026-05-04 01:34 | 50.64427 | -117.05389 | 29500 ft | 300 kts | 259° |
| 2026-05-04 01:35 | 50.63859 | -117.08273 | 29626 ft | 309 kts | 258° |
| 2026-05-04 01:35 | 50.62413 | -117.15539 | 29846 ft | 330 kts | 258° |
| 2026-05-04 01:35 | 50.61691 | -117.19168 | 30033 ft | 340 kts | 258° |
| 2026-05-04 01:36 | 50.60968 | -117.22787 | 30218 ft | 350 kts | 257° |
| 2026-05-04 01:36 | 50.60502 | -117.25112 | 30334 ft | 356 kts | 258° |
| 2026-05-04 01:36 | 50.59717 | -117.29025 | 30426 ft | 368 kts | 258° |
| 2026-05-04 01:36 | 50.58956 | -117.32812 | 30546 ft | 377 kts | 258° |
| 2026-05-04 01:37 | 50.58148 | -117.36826 | 30638 ft | 387 kts | 258° |
| 2026-05-04 01:37 | 50.57578 | -117.39650 | 30797 ft | 391 kts | 258° |
| 2026-05-04 01:37 | 50.56756 | -117.43884 | 31148 ft | 388 kts | 259° |
| 2026-05-04 01:37 | 50.55871 | -117.48862 | 31727 ft | 387 kts | 260° |
| 2026-05-04 01:38 | 50.55027 | -117.53375 | 32055 ft | 393 kts | 257° |
| 2026-05-04 01:38 | 50.53325 | -117.61103 | 32220 ft | 409 kts | 257° |
| 2026-05-04 01:39 | 50.52914 | -117.62998 | 32349 ft | 409 kts | 257° |
| 2026-05-04 01:39 | 50.48877 | -117.82257 | 33565 ft | 419 kts | 258° |
| 2026-05-04 01:40 | 50.47980 | -117.86586 | 33837 ft | 422 kts | 258° |
| 2026-05-04 01:40 | 50.47103 | -117.90815 | 34038 ft | 425 kts | 258° |
| 2026-05-04 01:40 | 50.46113 | -117.95580 | 34320 ft | 427 kts | 258° |
| 2026-05-04 01:40 | 50.45135 | -118.00275 | 34587 ft | 429 kts | 258° |
| 2026-05-04 01:41 | 50.44533 | -118.03160 | 34703 ft | 431 kts | 258° |
| 2026-05-04 01:41 | 50.43570 | -118.07775 | 34915 ft | 433 kts | 258° |
| 2026-05-04 01:41 | 50.42626 | -118.12283 | 35202 ft | 435 kts | 258° |
| 2026-05-04 01:41 | 50.41693 | -118.16726 | 35513 ft | 435 kts | 258° |
| 2026-05-04 01:42 | 50.40740 | -118.21264 | 35698 ft | 439 kts | 258° |
| 2026-05-04 01:42 | 50.39729 | -118.26061 | 35901 ft | 441 kts | 258° |
| 2026-05-04 01:42 | 50.38763 | -118.30633 | 36147 ft | 443 kts | 258° |
| 2026-05-04 01:42 | 50.37793 | -118.35216 | 36417 ft | 444 kts | 258° |
| 2026-05-04 01:43 | 50.36929 | -118.39290 | 36578 ft | 446 kts | 258° |
| 2026-05-04 01:43 | 50.35873 | -118.44258 | 36802 ft | 449 kts | 258° |
| 2026-05-04 01:43 | 50.34888 | -118.48883 | 37025 ft | 451 kts | 258° |
| 2026-05-04 01:43 | 50.33895 | -118.53534 | 37230 ft | 453 kts | 258° |
| 2026-05-04 01:44 | 50.32890 | -118.58227 | 37382 ft | 455 kts | 258° |
| 2026-05-04 01:44 | 50.31879 | -118.62937 | 37506 ft | 457 kts | 258° |
| 2026-05-04 01:44 | 50.30858 | -118.67682 | 37587 ft | 460 kts | 258° |
| 2026-05-04 01:44 | 50.29838 | -118.72412 | 37824 ft | 460 kts | 258° |
| 2026-05-04 01:45 | 50.28832 | -118.77070 | 37980 ft | 462 kts | 258° |
| 2026-05-04 01:45 | 50.25583 | -118.92029 | 38001 ft | 463 kts | 258° |
| 2026-05-04 01:46 | 50.23792 | -119.00233 | 38020 ft | 463 kts | 258° |
| 2026-05-04 01:46 | 50.21685 | -119.09842 | 37997 ft | 463 kts | 258° |
| 2026-05-04 01:47 | 50.19576 | -119.19416 | 37993 ft | 464 kts | 258° |
| 2026-05-04 01:47 | 50.17399 | -119.29255 | 37987 ft | 465 kts | 258° |
| 2026-05-04 01:48 | 50.15280 | -119.38787 | 37989 ft | 465 kts | 258° |
| 2026-05-04 01:48 | 50.13094 | -119.48571 | 37980 ft | 466 kts | 258° |
| 2026-05-04 01:49 | 50.10933 | -119.58204 | 37969 ft | 467 kts | 258° |
| 2026-05-04 01:49 | 50.08723 | -119.68006 | 37992 ft | 468 kts | 258° |
| 2026-05-04 01:50 | 50.06565 | -119.77531 | 37990 ft | 468 kts | 258° |
| 2026-05-04 01:50 | 50.04357 | -119.87238 | 37996 ft | 469 kts | 258° |
| 2026-05-04 01:51 | 50.02481 | -119.95446 | 37998 ft | 470 kts | 258° |
| 2026-05-04 01:51 | 50.00276 | -120.05058 | 38003 ft | 470 kts | 257° |
| 2026-05-04 01:52 | 49.98092 | -120.14535 | 38003 ft | 471 kts | 257° |
| 2026-05-04 01:52 | 49.95842 | -120.24258 | 38005 ft | 472 kts | 257° |
| 2026-05-04 01:53 | 49.93610 | -120.33851 | 38003 ft | 473 kts | 257° |
| 2026-05-04 01:53 | 49.91359 | -120.43491 | 38004 ft | 473 kts | 257° |
| 2026-05-04 01:54 | 49.89008 | -120.53509 | 37995 ft | 474 kts | 257° |
| 2026-05-04 01:54 | 49.86762 | -120.63038 | 37986 ft | 476 kts | 257° |
| 2026-05-04 01:55 | 49.84378 | -120.73104 | 37992 ft | 476 kts | 257° |
| 2026-05-04 01:55 | 49.82080 | -120.82763 | 37985 ft | 476 kts | 257° |
| 2026-05-04 01:56 | 49.79769 | -120.92436 | 37988 ft | 476 kts | 257° |
| 2026-05-04 01:56 | 49.77739 | -121.00896 | 37981 ft | 477 kts | 257° |
| 2026-05-04 01:57 | 49.75424 | -121.10506 | 37969 ft | 477 kts | 257° |
| 2026-05-04 01:57 | 49.73096 | -121.20125 | 37962 ft | 478 kts | 257° |
| 2026-05-04 01:58 | 49.70699 | -121.29988 | 37963 ft | 478 kts | 256° |
| 2026-05-04 01:58 | 49.68367 | -121.39543 | 37960 ft | 479 kts | 256° |
| 2026-05-04 01:59 | 49.65994 | -121.49218 | 37965 ft | 480 kts | 256° |
| 2026-05-04 01:59 | 49.63623 | -121.58850 | 37952 ft | 480 kts | 256° |
| 2026-05-04 02:00 | 49.61183 | -121.68711 | 37954 ft | 480 kts | 256° |
| 2026-05-04 02:00 | 49.58769 | -121.78436 | 37951 ft | 481 kts | 256° |
| 2026-05-04 02:01 | 49.56370 | -121.88046 | 37957 ft | 481 kts | 256° |
| 2026-05-04 02:01 | 49.53981 | -121.97579 | 37961 ft | 482 kts | 256° |
| 2026-05-04 02:02 | 49.51268 | -122.07279 | 37988 ft | 489 kts | 243° |
| 2026-05-04 02:02 | 49.47655 | -122.16131 | 37974 ft | 491 kts | 243° |
| 2026-05-04 02:03 | 49.44019 | -122.25136 | 37970 ft | 493 kts | 244° |
| 2026-05-04 02:03 | 49.40410 | -122.34189 | 37971 ft | 494 kts | 243° |
| 2026-05-04 02:04 | 49.38270 | -122.38370 | 37993 ft | 502 kts | 232° |
| 2026-05-04 02:04 | 49.35886 | -122.42441 | 37993 ft | 501 kts | 232° |
| 2026-05-04 02:04 | 49.31899 | -122.49121 | 37970 ft | 502 kts | 232° |
| 2026-05-04 02:05 | 49.29551 | -122.53065 | 37795 ft | 499 kts | 232° |
| 2026-05-04 02:05 | 49.27146 | -122.57130 | 37278 ft | 494 kts | 232° |
| 2026-05-04 02:05 | 49.24822 | -122.61077 | 36740 ft | 490 kts | 232° |
| 2026-05-04 02:05 | 49.23302 | -122.63662 | 36370 ft | 489 kts | 232° |
| 2026-05-04 02:06 | 49.20267 | -122.69136 | 35671 ft | 478 kts | 242° |
| 2026-05-04 02:06 | 49.18485 | -122.73514 | 35119 ft | 471 kts | 243° |
| 2026-05-04 02:06 | 49.16759 | -122.77767 | 34396 ft | 466 kts | 242° |
| 2026-05-04 02:06 | 49.14987 | -122.81874 | 33640 ft | 459 kts | 247° |
| 2026-05-04 02:07 | 49.13921 | -122.86369 | 32856 ft | 439 kts | 266° |
| 2026-05-04 02:07 | 49.13832 | -122.90901 | 32141 ft | 417 kts | 285° |
| 2026-05-04 02:07 | 49.14652 | -122.94982 | 31382 ft | 397 kts | 304° |
| 2026-05-04 02:07 | 49.16077 | -122.98652 | 30621 ft | 390 kts | 305° |
| 2026-05-04 02:08 | 49.17391 | -123.02216 | 29860 ft | 387 kts | 304° |
| 2026-05-04 02:08 | 49.18797 | -123.05898 | 29010 ft | 382 kts | 307° |
| 2026-05-04 02:08 | 49.20342 | -123.09143 | 28239 ft | 373 kts | 314° |
| 2026-05-04 02:08 | 49.22068 | -123.11977 | 27494 ft | 365 kts | 322° |
| 2026-05-04 02:09 | 49.24081 | -123.14306 | 26753 ft | 358 kts | 329° |
| 2026-05-04 02:09 | 49.26136 | -123.16332 | 26065 ft | 353 kts | 330° |
| 2026-05-04 02:09 | 49.28244 | -123.18367 | 25363 ft | 349 kts | 330° |
| 2026-05-04 02:09 | 49.30282 | -123.20323 | 24691 ft | 346 kts | 330° |
| 2026-05-04 02:10 | 49.32317 | -123.22268 | 24029 ft | 343 kts | 330° |
| 2026-05-04 02:10 | 49.34334 | -123.24188 | 23365 ft | 339 kts | 330° |
| 2026-05-04 02:10 | 49.36326 | -123.26076 | 22600 ft | 336 kts | 330° |
| 2026-05-04 02:10 | 49.38328 | -123.27964 | 21845 ft | 333 kts | 330° |
| 2026-05-04 02:11 | 49.39636 | -123.29194 | 21370 ft | 331 kts | 330° |
| 2026-05-04 02:11 | 49.42257 | -123.31650 | 20421 ft | 327 kts | 330° |
| 2026-05-04 02:11 | 49.44193 | -123.33454 | 19725 ft | 324 kts | 330° |
| 2026-05-04 02:11 | 49.46124 | -123.35249 | 19022 ft | 321 kts | 330° |
| 2026-05-04 02:12 | 49.48029 | -123.37013 | 18373 ft | 318 kts | 330° |
| 2026-05-04 02:12 | 49.49825 | -123.38664 | 17689 ft | 315 kts | 330° |
| 2026-05-04 02:12 | 49.51153 | -123.39882 | 17119 ft | 314 kts | 330° |
| 2026-05-04 02:12 | 49.52933 | -123.41511 | 16423 ft | 312 kts | 330° |
| 2026-05-04 02:13 | 49.54897 | -123.43307 | 15658 ft | 310 kts | 330° |
| 2026-05-04 02:13 | 49.56748 | -123.45000 | 14934 ft | 309 kts | 330° |
| 2026-05-04 02:13 | 49.58587 | -123.46683 | 14262 ft | 306 kts | 331° |
| 2026-05-04 02:13 | 49.60426 | -123.48362 | 13599 ft | 304 kts | 330° |
| 2026-05-04 02:14 | 49.62209 | -123.49989 | 12900 ft | 302 kts | 330° |
| 2026-05-04 02:14 | 49.64031 | -123.51655 | 12197 ft | 299 kts | 330° |
| 2026-05-04 02:14 | 49.65844 | -123.53319 | 11547 ft | 296 kts | 331° |
| 2026-05-04 02:14 | 49.67635 | -123.54974 | 10871 ft | 295 kts | 330° |
| 2026-05-04 02:15 | 49.69396 | -123.56611 | 10660 ft | 282 kts | 331° |
| 2026-05-04 02:15 | 49.70970 | -123.58089 | 11189 ft | 244 kts | 330° |
| 2026-05-04 02:15 | 49.72328 | -123.59381 | 11415 ft | 221 kts | 330° |
| 2026-05-04 02:15 | 49.73657 | -123.60657 | 11139 ft | 220 kts | 330° |
| 2026-05-04 02:16 | 49.74834 | -123.61873 | 11500 ft | 185 kts | 327° |
| 2026-05-04 02:16 | 49.75808 | -123.63013 | 11536 ft | 169 kts | 324° |
| 2026-05-04 02:16 | 49.76732 | -123.64241 | 11026 ft | 185 kts | 320° |
| 2026-05-04 02:16 | 49.77677 | -123.65640 | 10677 ft | 188 kts | 318° |
| 2026-05-04 02:17 | 49.77995 | -123.66150 | 10701 ft | 180 kts | 316° |
| 2026-05-04 02:17 | 49.78355 | -123.66768 | 10707 ft | 172 kts | 314° |
| 2026-05-04 02:17 | 49.79136 | -123.68256 | 10320 ft | 179 kts | 310° |
| 2026-05-04 02:17 | 49.79725 | -123.70272 | 8803 ft | 245 kts | 275° |
| 2026-05-04 02:18 | 49.79272 | -123.72997 | 7631 ft | 286 kts | 241° |
| 2026-05-04 02:18 | 49.78240 | -123.75738 | 7178 ft | 287 kts | 244° |
| 2026-05-04 02:18 | 49.77408 | -123.78500 | 6829 ft | 284 kts | 249° |
| 2026-05-04 02:18 | 49.76759 | -123.81311 | 6460 ft | 283 kts | 253° |
| 2026-05-04 02:19 | 49.76482 | -123.82742 | 6247 ft | 283 kts | 256° |
| 2026-05-04 02:19 | 49.76087 | -123.85060 | 5952 ft | 281 kts | 257° |
| 2026-05-04 02:19 | 49.75627 | -123.88142 | 5511 ft | 277 kts | 259° |
| 2026-05-04 02:19 | 49.75230 | -123.91035 | 5147 ft | 274 kts | 260° |
| 2026-05-04 02:20 | 49.74855 | -123.93914 | 4780 ft | 271 kts | 260° |
| 2026-05-04 02:20 | 49.74496 | -123.96755 | 4384 ft | 269 kts | 260° |
| 2026-05-04 02:20 | 49.74143 | -123.99572 | 3962 ft | 267 kts | 260° |
| 2026-05-04 02:20 | 49.73790 | -124.02421 | 3562 ft | 266 kts | 261° |
| 2026-05-04 02:21 | 49.73445 | -124.05210 | 3177 ft | 263 kts | 260° |
| 2026-05-04 02:21 | 49.73167 | -124.07454 | 2860 ft | 262 kts | 261° |
| 2026-05-04 02:21 | 49.72826 | -124.10211 | 2457 ft | 261 kts | 260° |